Time;durP1;ratioP1;P1;durP2;ratioP2;P2;SDS_P1;SDS_P2;PMS_P1;PMS_P2;Temp;Humidity;BMP_temperature;BMP_pressure;BME280_temperature;BME280_humidity;BME280_pressure;Samples;Min_cycle;Max_cycle;Signal;HPM_P1;HPM_P2
2022/12/03 00:00:16;;;;;;;29.10;19.43;;;;;;;1.73;100.00;102217.44;5165045;28;20042;-73
2022/12/03 00:02:47;;;;;;;28.00;19.20;;;;;;;1.58;100.00;102224.31;5164473;28;20030;-70
2022/12/03 00:05:18;;;;;;;26.77;19.03;;;;;;;1.56;100.00;102206.25;5162465;28;20030;-71
2022/12/03 00:07:49;;;;;;;28.03;18.37;;;;;;;1.59;100.00;102223.44;5163077;28;20516;-68
2022/12/03 00:10:21;;;;;;;26.50;18.30;;;;;;;1.64;100.00;102216.56;5163750;28;20042;-69
2022/12/03 00:12:52;;;;;;;27.20;18.03;;;;;;;1.61;100.00;102211.41;5161592;28;20545;-69
2022/12/03 00:15:23;;;;;;;27.20;17.93;;;;;;;1.52;100.00;102206.25;5164942;28;20363;-69
2022/12/03 00:17:55;;;;;;;27.63;18.73;;;;;;;1.54;100.00;102204.50;5164747;28;20038;-69
2022/12/03 00:20:26;;;;;;;26.37;19.07;;;;;;;1.52;100.00;102207.09;5164356;28;20462;-69
2022/12/03 00:22:57;;;;;;;28.50;19.67;;;;;;;1.64;100.00;102206.22;5162427;28;20035;-70
2022/12/03 00:25:28;;;;;;;28.67;18.83;;;;;;;1.62;100.00;102210.56;5163976;28;20076;-69
2022/12/03 00:28:00;;;;;;;26.57;17.77;;;;;;;1.63;100.00;102194.19;5163364;28;20038;-70
2022/12/03 00:30:31;;;;;;;30.23;18.90;;;;;;;1.61;100.00;102189.88;5164532;28;20026;-68
2022/12/03 00:33:02;;;;;;;26.90;19.10;;;;;;;1.59;100.00;102195.03;5163550;28;20034;-68
2022/12/03 00:35:34;;;;;;;29.63;19.37;;;;;;;1.60;100.00;102191.63;5163134;28;20034;-71
2022/12/03 00:38:05;;;;;;;30.50;19.53;;;;;;;1.60;100.00;102196.78;5164466;28;20042;-70
2022/12/03 00:40:36;;;;;;;31.57;19.97;;;;;;;1.58;100.00;102193.34;5164154;28;20233;-71
2022/12/03 00:43:08;;;;;;;28.47;18.90;;;;;;;1.61;100.00;102190.75;5162996;28;20042;-72
2022/12/03 00:45:39;;;;;;;28.43;19.47;;;;;;;1.68;100.00;102195.06;5163866;28;20030;-70
2022/12/03 00:48:10;;;;;;;30.60;18.43;;;;;;;1.68;100.00;102181.28;5163697;28;20039;-71
2022/12/03 00:50:41;;;;;;;27.73;18.70;;;;;;;1.63;100.00;102194.19;5164122;28;20042;-71
2022/12/03 00:53:13;;;;;;;33.10;21.40;;;;;;;1.60;100.00;102183.00;5164160;28;20123;-71
2022/12/03 00:55:44;;;;;;;31.47;19.23;;;;;;;1.59;100.00;102195.03;5164007;28;20939;-71
2022/12/03 00:58:16;;;;;;;33.23;22.30;;;;;;;1.63;100.00;102194.19;5163637;28;20568;-71
2022/12/03 01:00:47;;;;;;;30.97;20.83;;;;;;;1.64;100.00;102193.31;5163344;28;20023;-71
2022/12/03 01:03:19;;;;;;;30.37;20.10;;;;;;;1.64;100.00;102188.16;5163330;28;20574;-70
2022/12/03 01:05:50;;;;;;;33.70;22.60;;;;;;;1.58;100.00;102195.91;5163260;28;20031;-72
2022/12/03 01:08:21;;;;;;;30.30;19.83;;;;;;;1.63;100.00;102194.19;5164083;28;20045;-71
2022/12/03 01:10:52;;;;;;;31.37;19.73;;;;;;;1.64;100.00;102195.06;5164501;28;20030;-71
2022/12/03 01:13:24;;;;;;;30.77;19.43;;;;;;;1.56;100.00;102202.78;5163576;28;20063;-70
2022/12/03 01:15:55;;;;;;;33.23;21.53;;;;;;;1.66;100.00;102199.34;5162631;28;20039;-68
2022/12/03 01:18:26;;;;;;;34.53;21.47;;;;;;;1.64;100.00;102185.56;5162170;28;20038;-70
2022/12/03 01:20:57;;;;;;;33.53;21.57;;;;;;;1.71;100.00;102193.34;5162644;28;20062;-71
2022/12/03 01:23:29;;;;;;;30.43;20.63;;;;;;;1.59;100.00;102179.53;5162432;28;20066;-69
2022/12/03 01:26:00;;;;;;;33.17;19.83;;;;;;;1.63;100.00;102193.31;5162423;28;20023;-69
2022/12/03 01:28:31;;;;;;;30.03;20.20;;;;;;;1.75;100.00;102192.44;5161454;28;20070;-70
2022/12/03 01:33:53;;;;;;;30.87;20.23;;;;;;;1.55;100.00;102180.44;5162548;28;20039;-70
2022/12/03 01:36:24;;;;;;;32.13;21.00;;;;;;;1.64;100.00;102177.81;5161903;28;20375;-68
2022/12/03 01:38:55;;;;;;;31.87;21.70;;;;;;;1.72;100.00;102187.28;5163527;28;20042;-70
2022/12/03 01:41:27;;;;;;;31.87;21.73;;;;;;;1.73;100.00;102187.28;5163417;28;20035;-70
2022/12/03 01:44:01;;;;;;;33.97;22.13;;;;;;;1.72;100.00;102183.00;5162665;28;20039;-69
2022/12/03 01:46:40;;;;;;;30.40;20.70;;;;;;;1.68;100.00;102179.56;5163455;28;20027;-71
2022/12/03 01:49:16;;;;;;;34.40;23.00;;;;;;;1.66;100.00;102183.84;5162414;28;20039;-71
2022/12/03 01:51:50;;;;;;;29.37;21.47;;;;;;;1.59;100.00;102182.13;5163299;28;20101;-70
2022/12/03 01:54:26;;;;;;;31.92;21.60;;;;;;;1.64;100.00;102180.41;5164018;28;20540;-70
2022/12/03 01:56:57;;;;;;;34.40;22.87;;;;;;;1.60;100.00;102178.69;5163746;28;20038;-70
2022/12/03 01:59:35;;;;;;;31.10;22.73;;;;;;;1.69;100.00;102181.25;5162715;28;20039;-71
2022/12/03 02:02:28;;;;;;;33.80;23.03;;;;;;;1.67;100.00;102175.25;5163777;28;20046;-70
2022/12/03 02:05:00;;;;;;;35.90;23.53;;;;;;;1.66;100.00;102170.94;5169598;28;20066;-72
2022/12/03 02:07:33;;;;;;;38.30;23.50;;;;;;;1.64;100.00;102183.00;5173057;28;20035;-71
2022/12/03 02:10:05;;;;;;;38.03;22.70;;;;;;;1.51;100.00;102163.19;5172305;28;20146;-72
2022/12/03 02:12:42;;;;;;;34.57;23.03;;;;;;;1.62;100.00;102179.56;5172120;28;20038;-71
2022/12/03 02:15:14;;;;;;;36.33;23.30;;;;;;;1.62;100.00;102166.66;5172670;28;20053;-70
2022/12/03 02:17:45;;;;;;;33.73;22.10;;;;;;;1.59;100.00;102166.63;5173073;28;20026;-72
2022/12/03 02:20:17;;;;;;;36.87;24.73;;;;;;;1.62;100.00;102176.13;5173173;28;20026;-70
2022/12/03 02:23:16;;;;;;;34.47;22.63;;;;;;;1.56;100.00;102156.31;5171505;28;20410;-72
2022/12/03 02:25:47;;;;;;;37.33;23.23;;;;;;;1.55;100.00;102173.53;5162036;28;20389;-71
2022/12/03 02:28:18;;;;;;;37.07;25.27;;;;;;;1.52;100.00;102176.09;5171943;28;20130;-71
2022/12/03 02:30:49;;;;;;;35.87;22.57;;;;;;;1.51;100.00;102165.78;5172489;28;20030;-71
2022/12/03 02:33:21;;;;;;;36.27;24.57;;;;;;;1.43;100.00;102151.16;5175669;28;20029;-70
2022/12/03 02:35:52;;;;;;;35.53;24.20;;;;;;;1.54;100.00;102164.06;5175452;28;20066;-71
2022/12/03 02:38:26;;;;;;;35.47;23.43;;;;;;;1.55;100.00;102160.59;5176820;28;20027;-69
2022/12/03 02:41:03;;;;;;;34.27;23.93;;;;;;;1.60;100.00;102163.22;5176599;28;20110;-71
2022/12/03 02:43:35;;;;;;;35.70;23.33;;;;;;;1.43;100.00;102135.66;5175827;28;20031;-69
2022/12/03 02:46:07;;;;;;;37.07;23.53;;;;;;;1.62;100.00;102166.66;5175721;28;20484;-72
2022/12/03 02:48:39;;;;;;;33.40;23.10;;;;;;;1.52;100.00;102154.63;5177031;28;20027;-71
2022/12/03 02:51:11;;;;;;;34.63;22.40;;;;;;;1.56;100.00;102156.31;5175326;28;20069;-71
2022/12/03 02:53:46;;;;;;;34.63;23.43;;;;;;;1.59;100.00;102160.63;5176118;28;20054;-70
2022/12/03 02:56:21;;;;;;;37.03;24.17;;;;;;;1.57;100.00;102148.56;5176417;28;20018;-71
2022/12/03 02:58:57;;;;;;;36.30;23.13;;;;;;;1.59;100.00;102147.72;5175067;28;20487;-72
2022/12/03 03:01:28;;;;;;;35.37;23.73;;;;;;;1.66;100.00;102152.84;5174866;28;20058;-72
2022/12/03 03:04:01;;;;;;;36.33;23.87;;;;;;;1.66;100.00;102157.16;5175746;28;20105;-72
2022/12/03 03:06:33;;;;;;;36.27;23.10;;;;;;;1.58;100.00;102139.09;5175847;28;20041;-72
2022/12/03 03:09:04;;;;;;;35.77;24.03;;;;;;;1.61;100.00;102139.09;5175777;28;20457;-69
2022/12/03 03:11:36;;;;;;;37.30;23.87;;;;;;;1.70;100.00;102153.72;5175631;28;20081;-71
2022/12/03 03:14:07;;;;;;;37.63;23.17;;;;;;;1.65;100.00;102146.00;5174085;28;20501;-72
2022/12/03 03:16:38;;;;;;;35.93;24.83;;;;;;;1.69;100.00;102158.00;5175713;28;20109;-72
2022/12/03 03:19:10;;;;;;;35.93;25.10;;;;;;;1.65;100.00;102143.41;5174505;28;20034;-72
2022/12/03 03:21:41;;;;;;;34.50;23.53;;;;;;;1.67;100.00;102149.44;5175778;28;20102;-71
2022/12/03 03:24:12;;;;;;;36.70;24.37;;;;;;;1.62;100.00;102134.78;5175491;28;20474;-70
2022/12/03 03:26:44;;;;;;;33.17;23.07;;;;;;;1.63;100.00;102145.13;5174188;28;20027;-72
2022/12/03 03:29:16;;;;;;;33.97;22.07;;;;;;;1.45;100.00;102113.28;5174437;28;20037;-72
2022/12/03 03:31:48;;;;;;;40.40;24.00;;;;;;;1.62;100.00;102140.84;5175511;28;20023;-71
2022/12/03 03:34:19;;;;;;;35.57;24.90;;;;;;;1.62;100.00;102132.22;5175888;28;20582;-71
2022/12/03 03:36:51;;;;;;;38.97;25.73;;;;;;;1.64;100.00;102136.50;5174888;28;20381;-72
2022/12/03 03:39:22;;;;;;;34.70;23.67;;;;;;;1.72;100.00;102131.34;5175426;28;20533;-72
2022/12/03 03:41:53;;;;;;;38.60;23.73;;;;;;;1.68;100.00;102127.91;5175105;28;20103;-71
2022/12/03 03:44:25;;;;;;;36.67;24.23;;;;;;;1.64;100.00;102133.91;5174032;28;20062;-70
2022/12/03 03:46:56;;;;;;;36.33;24.77;;;;;;;1.64;100.00;102123.59;5174846;28;20078;-72
2022/12/03 03:49:28;;;;;;;32.80;23.23;;;;;;;1.69;100.00;102127.03;5175141;28;20031;-72
2022/12/03 03:51:59;;;;;;;37.33;24.57;;;;;;;1.69;100.00;102127.03;5174916;28;20439;-72
2022/12/03 03:54:31;;;;;;;38.20;23.80;;;;;;;1.63;100.00;102127.03;5174569;28;20058;-70
2022/12/03 03:57:02;;;;;;;35.03;24.30;;;;;;;1.74;100.00;102128.75;5212366;23;20069;-72
2022/12/03 03:59:33;;;;;;;38.77;25.27;;;;;;;1.67;100.00;102127.91;5173049;28;20035;-72
2022/12/03 04:02:05;;;;;;;39.57;25.07;;;;;;;1.75;100.00;102125.28;5172259;28;20038;-72
2022/12/03 04:04:36;;;;;;;33.10;23.17;;;;;;;1.71;100.00;102128.75;5173985;28;20523;-71
2022/12/03 04:07:07;;;;;;;35.03;23.93;;;;;;;1.76;100.00;102129.63;5173192;28;20433;-72
2022/12/03 04:09:38;;;;;;;36.97;23.97;;;;;;;1.64;100.00;102107.25;5172393;28;20031;-72
2022/12/03 04:15:04;;;;;;;36.03;23.27;;;;;;;1.68;100.00;102125.31;5171234;28;20082;-72
2022/12/03 04:17:35;;;;;;;37.70;24.80;;;;;;;1.76;100.00;102124.44;5173389;28;20073;-71
2022/12/03 04:20:07;;;;;;;38.93;25.37;;;;;;;1.79;100.00;102127.00;5173186;28;20030;-69
2022/12/03 04:22:41;;;;;;;37.50;25.67;;;;;;;1.73;100.00;102124.47;5171300;28;20051;-72
2022/12/03 04:30:52;;;;;;;36.70;23.67;;;;;;;1.73;100.00;102121.88;5172424;28;20482;-72
2022/12/03 04:36:13;;;;;;;37.83;24.93;;;;;;;1.63;100.00;102127.03;5158053;28;20047;-73
2022/12/03 04:38:44;;;;;;;39.30;25.73;;;;;;;1.64;100.00;102125.34;5167685;28;20035;-71
2022/12/03 04:41:16;;;;;;;36.73;24.97;;;;;;;1.74;100.00;102123.59;5159104;28;20066;-71
2022/12/03 04:46:37;;;;;;;40.77;26.57;;;;;;;1.63;100.00;102121.88;5159866;28;20039;-70
2022/12/03 04:49:08;;;;;;;39.30;26.93;;;;;;;1.67;100.00;102118.44;5161826;28;20355;-71
2022/12/03 04:51:39;;;;;;;38.43;26.70;;;;;;;1.58;100.00;102113.28;5160457;28;20062;-72
2022/12/03 04:54:11;;;;;;;37.87;26.10;;;;;;;1.61;100.00;102117.56;5161350;28;20034;-71
2022/12/03 04:56:42;;;;;;;37.83;24.57;;;;;;;1.56;100.00;102115.00;5161141;28;20043;-71
2022/12/03 04:59:13;;;;;;;38.10;25.97;;;;;;;1.51;100.00;102114.13;5164092;28;20035;-72
2022/12/03 05:01:45;;;;;;;37.57;26.13;;;;;;;1.51;100.00;102109.84;5159868;28;20078;-71
2022/12/03 05:04:17;;;;;;;38.60;26.57;;;;;;;1.53;100.00;102118.47;5154276;28;20081;-72
2022/12/03 05:06:48;;;;;;;39.33;25.20;;;;;;;1.46;100.00;102098.66;5162875;28;20114;-70
2022/12/03 05:09:19;;;;;;;38.77;24.73;;;;;;;1.54;100.00;102106.38;5171021;28;20474;-72
2022/12/03 05:11:51;;;;;;;38.03;26.10;;;;;;;1.48;100.00;102109.84;5163809;28;20065;-72
2022/12/03 05:14:22;;;;;;;33.83;24.20;;;;;;;1.60;100.00;102106.41;5171729;28;20035;-72
2022/12/03 05:16:53;;;;;;;39.17;25.70;;;;;;;1.60;100.00;102106.41;5165505;28;20445;-71
2022/12/03 05:20:40;;;;;;;39.70;25.87;;;;;;;1.52;100.00;102095.22;5173677;28;20448;-71
2022/12/03 05:22:16;;;;;;;35.13;25.07;;;;;;;1.51;100.00;102101.22;5170023;28;20042;-71
2022/12/03 05:24:47;;;;;;;38.83;25.80;;;;;;;1.52;100.00;102096.06;5165972;28;20023;-71
2022/12/03 05:27:20;;;;;;;38.33;26.90;;;;;;;1.55;100.00;102093.47;5168395;28;20026;-69
2022/12/03 05:29:51;;;;;;;39.40;26.93;;;;;;;1.54;100.00;102101.22;5166958;28;20027;-70
2022/12/03 05:32:23;;;;;;;41.50;26.80;;;;;;;1.54;100.00;102103.81;5168596;28;20102;-70
2022/12/03 05:34:54;;;;;;;42.07;26.90;;;;;;;1.55;100.00;102092.63;5172401;28;20031;-72
2022/12/03 05:37:25;;;;;;;41.40;26.90;;;;;;;1.58;100.00;102097.78;5170526;28;20466;-71
2022/12/03 05:39:57;;;;;;;42.43;28.13;;;;;;;1.43;100.00;102093.50;5167112;28;20601;-71
2022/12/03 05:45:32;;;;;;;39.53;25.87;;;;;;;1.55;100.00;102092.63;5167612;28;20043;-72
2022/12/03 05:48:06;;;;;;;40.80;27.97;;;;;;;1.55;100.00;102088.31;5166753;28;20035;-73
2022/12/03 05:50:40;;;;;;;42.95;27.55;;;;;;;1.53;100.00;102086.59;5168172;28;20332;-72
2022/12/03 05:53:12;;;;;;;42.97;27.70;;;;;;;1.44;100.00;102078.00;5169516;28;20537;-73
2022/12/03 05:55:43;;;;;;;44.53;29.00;;;;;;;1.40;100.00;102083.16;5162470;28;20058;-73
2022/12/03 05:58:14;;;;;;;41.70;27.37;;;;;;;1.45;100.00;102079.72;5164548;28;21060;-73
2022/12/03 06:00:46;;;;;;;42.00;27.23;;;;;;;1.44;100.00;102082.31;5169523;28;20381;-72
2022/12/03 06:03:17;;;;;;;41.00;28.07;;;;;;;1.42;100.00;102084.91;5165557;28;20256;-72
2022/12/03 06:05:48;;;;;;;37.57;25.43;;;;;;;1.47;100.00;102084.88;5166125;28;20050;-72
2022/12/03 06:08:19;;;;;;;38.77;25.40;;;;;;;1.47;100.00;102082.31;5167408;28;20031;-72
2022/12/03 06:10:51;;;;;;;40.80;25.60;;;;;;;1.45;100.00;102082.31;5171661;28;20038;-69
2022/12/03 06:13:22;;;;;;;40.93;26.73;;;;;;;1.40;100.00;102083.16;5171576;28;20093;-72
2022/12/03 06:15:53;;;;;;;44.80;26.80;;;;;;;1.53;100.00;102079.72;5167069;28;20063;-71
2022/12/03 06:18:25;;;;;;;43.17;27.03;;;;;;;1.51;100.00;102080.56;5167405;28;20035;-73
2022/12/03 06:20:56;;;;;;;40.03;26.90;;;;;;;1.41;100.00;102070.28;5176978;28;20033;-72
2022/12/03 06:23:27;;;;;;;40.77;27.20;;;;;;;1.53;100.00;102082.31;5177501;28;20031;-72
2022/12/03 06:25:59;;;;;;;41.03;27.77;;;;;;;1.50;100.00;102078.88;5174791;28;20045;-72
2022/12/03 06:28:30;;;;;;;43.37;27.47;;;;;;;1.59;100.00;102073.66;5163669;28;20134;-73
2022/12/03 06:31:01;;;;;;;40.70;26.07;;;;;;;1.56;100.00;102081.44;5171817;28;20503;-72
2022/12/03 06:33:32;;;;;;;43.03;27.23;;;;;;;1.54;100.00;102077.97;5175273;28;20049;-72
2022/12/03 06:36:04;;;;;;;42.13;27.13;;;;;;;1.58;100.00;102082.28;5166971;28;20038;-72
2022/12/03 06:38:35;;;;;;;43.70;28.20;;;;;;;1.51;100.00;102065.09;5170757;28;20369;-73
2022/12/03 06:41:07;;;;;;;40.97;26.20;;;;;;;1.60;100.00;102080.56;5173417;28;20034;-71
2022/12/03 06:43:38;;;;;;;43.63;27.93;;;;;;;1.63;100.00;102083.13;5174184;28;20092;-72
2022/12/03 06:46:09;;;;;;;43.57;27.73;;;;;;;1.55;100.00;102080.56;5166884;28;20057;-72
2022/12/03 06:48:40;;;;;;;42.33;27.43;;;;;;;1.59;100.00;102084.00;5171605;28;20027;-73
2022/12/03 06:51:12;;;;;;;40.80;26.40;;;;;;;1.49;100.00;102066.81;5170618;28;20046;-73
2022/12/03 06:53:43;;;;;;;44.30;28.63;;;;;;;1.47;100.00;102068.56;5175299;28;20023;-74
2022/12/03 06:56:14;;;;;;;42.37;26.33;;;;;;;1.56;100.00;102079.72;5173347;28;20049;-73
2022/12/03 06:58:46;;;;;;;39.20;26.30;;;;;;;1.48;100.00;102068.53;5170402;28;20061;-74
2022/12/03 07:01:17;;;;;;;41.50;26.57;;;;;;;1.52;100.00;102077.16;5160740;28;20106;-71
2022/12/03 07:03:48;;;;;;;41.17;27.33;;;;;;;1.59;100.00;102081.41;5170111;28;20031;-73
2022/12/03 07:06:20;;;;;;;45.87;27.40;;;;;;;1.49;100.00;102077.13;5173474;28;20411;-73
2022/12/03 07:08:51;;;;;;;45.63;28.53;;;;;;;1.51;100.00;102075.41;5174560;28;20450;-71
2022/12/03 07:11:32;;;;;;;41.60;27.87;;;;;;;1.59;100.00;102075.41;5174842;28;20098;-73
2022/12/03 07:14:05;;;;;;;44.97;28.10;;;;;;;1.59;100.00;102073.66;5174268;28;20307;-73
2022/12/03 07:16:37;;;;;;;38.10;25.90;;;;;;;1.59;100.00;102081.41;5186698;28;20030;-73
2022/12/03 07:19:09;;;;;;;46.47;26.53;;;;;;;1.53;100.00;102079.72;5172577;28;20039;-68
2022/12/03 07:21:40;;;;;;;40.70;26.33;;;;;;;1.43;100.00;102073.69;5174370;28;20373;-71
2022/12/03 07:24:12;;;;;;;43.67;26.60;;;;;;;1.28;100.00;102058.22;5174902;28;20047;-73
2022/12/03 07:26:43;;;;;;;39.20;26.43;;;;;;;1.43;100.00;102075.44;5173060;28;20397;-73
2022/12/03 07:29:14;;;;;;;40.93;26.27;;;;;;;1.49;100.00;102070.25;5174703;28;20066;-71
2022/12/03 07:31:46;;;;;;;44.20;27.87;;;;;;;1.44;100.00;102077.16;5176629;28;20482;-73
2022/12/03 07:34:17;;;;;;;41.70;25.97;;;;;;;1.43;100.00;102068.53;5170686;28;20026;-72
2022/12/03 07:36:48;;;;;;;40.67;25.50;;;;;;;1.41;100.00;102069.41;5170674;28;20025;-73
2022/12/03 07:39:20;;;;;;;41.93;27.20;;;;;;;1.41;100.00;102065.13;5166840;28;20135;-71
2022/12/03 07:41:51;;;;;;;46.23;26.77;;;;;;;1.52;100.00;102069.41;5168722;28;20085;-73
2022/12/03 07:44:22;;;;;;;40.23;26.57;;;;;;;1.52;100.00;102072.81;5169923;28;20027;-72
2022/12/03 07:46:53;;;;;;;41.73;27.23;;;;;;;1.54;100.00;102067.66;5162674;28;20110;-74
2022/12/03 07:49:25;;;;;;;38.77;25.00;;;;;;;1.56;100.00;102068.50;5171199;28;20540;-72
2022/12/03 07:51:57;;;;;;;39.47;25.97;;;;;;;1.42;100.00;102074.56;5170574;28;20033;-74
2022/12/03 07:54:28;;;;;;;42.00;26.07;;;;;;;1.44;100.00;102074.56;5166745;28;20019;-72
2022/12/03 07:56:59;;;;;;;45.63;26.27;;;;;;;1.55;100.00;102074.56;5164311;28;20060;-73
2022/12/03 07:59:31;;;;;;;40.43;25.60;;;;;;;1.54;100.00;102075.41;5168282;28;20026;-69
2022/12/03 08:02:02;;;;;;;38.23;25.77;;;;;;;1.53;100.00;102079.72;5161542;28;20117;-72
2022/12/03 08:04:33;;;;;;;42.93;26.03;;;;;;;1.57;100.00;102072.84;5167176;28;20105;-72
2022/12/03 08:07:05;;;;;;;42.57;25.60;;;;;;;1.63;100.00;102080.56;5159896;28;20482;-74
2022/12/03 08:09:38;;;;;;;38.13;24.37;;;;;;;1.55;100.00;102080.56;5170085;28;20050;-69
2022/12/03 08:12:21;;;;;;;37.67;23.10;;;;;;;1.53;100.00;102079.72;5158082;28;20034;-68
2022/12/03 08:14:53;;;;;;;41.97;26.17;;;;;;;1.52;100.00;102084.91;5168175;28;20066;-69
2022/12/03 08:17:24;;;;;;;45.00;26.90;;;;;;;1.45;100.00;102087.47;5169109;28;20092;-68
2022/12/03 08:19:56;;;;;;;40.60;25.63;;;;;;;1.50;100.00;102077.13;5167424;28;20105;-69
2022/12/03 08:22:28;;;;;;;41.37;24.63;;;;;;;1.45;100.00;102081.44;5173900;28;20082;-70
2022/12/03 08:24:59;;;;;;;39.73;25.10;;;;;;;1.50;100.00;102082.28;5172399;28;20042;-69
2022/12/03 08:27:32;;;;;;;37.50;23.93;;;;;;;1.45;100.00;102079.72;5166542;28;20031;-69
2022/12/03 08:30:04;;;;;;;36.40;23.27;;;;;;;1.45;100.00;102079.72;5169448;28;20023;-68
2022/12/03 08:32:35;;;;;;;37.77;24.10;;;;;;;1.50;100.00;102081.44;5167155;28;20489;-68
2022/12/03 08:35:11;;;;;;;38.40;23.37;;;;;;;1.49;100.00;102087.47;5167704;28;20019;-68
2022/12/03 08:37:43;;;;;;;38.57;25.43;;;;;;;1.51;100.00;102075.41;5168972;28;20054;-69
2022/12/03 08:40:33;;;;;;;40.10;25.77;;;;;;;1.62;100.00;102083.16;5169987;28;20073;-69
2022/12/03 08:43:23;;;;;;;43.30;24.90;;;;;;;1.61;100.00;102087.44;5173564;28;20030;-70
2022/12/03 08:45:56;;;;;;;41.10;23.23;;;;;;;1.47;100.00;102078.88;5158094;28;20026;-69
2022/12/03 08:48:29;;;;;;;43.80;25.13;;;;;;;1.54;100.00;102086.59;5168310;28;20035;-70
2022/12/03 08:51:11;;;;;;;38.57;22.33;;;;;;;1.61;100.00;102084.00;5165160;28;20380;-70
2022/12/03 08:53:46;;;;;;;40.50;23.60;;;;;;;1.72;100.00;102078.81;5164761;28;20122;-70
2022/12/03 08:56:26;;;;;;;38.70;22.83;;;;;;;1.70;100.00;102081.41;5156057;28;20047;-69
2022/12/03 08:59:01;;;;;;;39.83;25.20;;;;;;;1.64;100.00;102082.25;5165637;28;20034;-69
2022/12/03 09:01:40;;;;;;;44.60;25.93;;;;;;;1.71;100.00;102087.44;5157246;28;20046;-68
2022/12/03 09:04:45;;;;;;;39.43;24.63;;;;;;;1.67;100.00;102084.88;5157341;28;20020;-68
2022/12/03 09:07:16;;;;;;;49.28;27.70;;;;;;;1.56;100.00;102084.00;5162117;28;20497;-68
2022/12/03 09:09:48;;;;;;;46.80;26.77;;;;;;;1.67;100.00;102087.44;5165234;28;20062;-68
2022/12/03 09:12:19;;;;;;;45.90;24.53;;;;;;;1.72;100.00;102083.97;5168157;28;20018;-68
2022/12/03 09:14:50;;;;;;;38.63;24.83;;;;;;;1.63;100.00;102085.72;5165230;28;20031;-68
2022/12/03 09:17:21;;;;;;;42.77;24.77;;;;;;;1.66;100.00;102083.13;5168665;28;20466;-68
2022/12/03 09:19:53;;;;;;;40.93;24.93;;;;;;;1.69;100.00;102085.69;5168943;28;20027;-68
2022/12/03 09:22:24;;;;;;;37.63;23.27;;;;;;;1.61;100.00;102091.75;5172619;28;20499;-68
2022/12/03 09:24:55;;;;;;;42.40;24.97;;;;;;;1.64;100.00;102087.44;5171774;28;20390;-68
2022/12/03 09:27:27;;;;;;;38.30;22.73;;;;;;;1.55;100.00;102095.22;5171258;28;20019;-68
2022/12/03 09:29:58;;;;;;;40.63;25.93;;;;;;;1.50;100.00;102086.63;5171942;28;20027;-68
2022/12/03 09:32:29;;;;;;;40.87;25.33;;;;;;;1.46;100.00;102078.00;5172391;28;20048;-68
2022/12/03 09:35:00;;;;;;;39.43;23.40;;;;;;;1.57;100.00;102086.59;5171144;28;20034;-68
2022/12/03 09:37:32;;;;;;;45.90;24.50;;;;;;;1.54;100.00;102077.97;5163394;28;20035;-68
2022/12/03 09:40:04;;;;;;;42.50;24.97;;;;;;;1.46;100.00;102080.59;5170739;28;20039;-67
2022/12/03 09:42:36;;;;;;;40.57;23.73;;;;;;;1.49;100.00;102078.00;5169589;28;20031;-68
2022/12/03 09:45:11;;;;;;;42.20;25.87;;;;;;;1.57;100.00;102086.59;5171748;28;20034;-69
2022/12/03 09:47:46;;;;;;;39.55;25.02;;;;;;;1.50;100.00;102079.69;5172028;28;20058;-70
2022/12/03 09:50:21;;;;;;;44.33;23.90;;;;;;;1.49;100.00;102079.72;5171868;28;20045;-70
2022/12/03 09:52:53;;;;;;;;;;;;;;;1.57;100.00;102075.41;5172332;28;20039;-69
2022/12/03 09:55:27;;;;;;;40.03;23.27;;;;;;;1.32;100.00;102068.56;5171373;28;20261;-69
2022/12/03 09:57:59;;;;;;;38.07;21.90;;;;;;;1.27;100.00;102051.34;5171160;28;20434;-68
2022/12/03 10:00:30;;;;;;;39.80;24.77;;;;;;;1.37;100.00;102068.56;5172300;28;20049;-68
2022/12/03 10:03:05;;;;;;;44.73;24.27;;;;;;;1.43;100.00;102071.13;5171725;28;20420;-68
2022/12/03 10:05:36;;;;;;;39.65;22.88;;;;;;;1.37;100.00;102068.56;5172486;28;20517;-68
2022/12/03 10:08:11;;;;;;;40.83;24.20;;;;;;;1.35;100.00;102070.28;5171478;28;20023;-68
2022/12/03 10:10:43;;;;;;;;;;;;;;;1.43;100.00;102059.94;5170338;28;20551;-69
2022/12/03 10:13:26;;;;;;;30.43;19.70;;;;;;;1.32;100.00;102066.00;5171294;28;19992;-70
2022/12/03 10:15:59;;;;;;;34.27;21.67;;;;;;;1.25;100.00;102059.09;5171098;28;20023;-69
2022/12/03 10:18:33;;;;;;;35.08;20.48;;;;;;;1.37;100.00;102060.81;5168706;28;20113;-69
2022/12/03 10:21:15;;;;;;;33.47;20.25;;;;;;;1.29;100.00;102054.81;5172016;28;20058;-69
2022/12/03 10:23:49;;;;;;;31.20;19.80;;;;;;;1.24;100.00;102043.63;5170068;28;20094;-69
2022/12/03 10:26:37;;;;;;;33.37;19.07;;;;;;;1.26;100.00;102050.50;5168660;28;20062;-70
2022/12/03 10:29:21;;;;;;;28.83;17.60;;;;;;;1.32;100.00;102044.47;5170528;28;20373;-69
2022/12/03 10:31:58;;;;;;;32.80;19.77;;;;;;;1.24;100.00;102041.03;5166072;28;20106;-69
2022/12/03 10:34:36;;;;;;;31.87;19.07;;;;;;;1.28;100.00;102040.16;5155162;28;20544;-70
2022/12/03 10:37:18;;;;;;;35.03;19.70;;;;;;;1.19;100.00;102039.31;5156892;28;20061;-69
2022/12/03 10:39:54;;;;;;;29.87;19.53;;;;;;;1.13;100.00;102034.16;5165441;28;20033;-68
2022/12/03 10:42:31;;;;;;;33.00;19.03;;;;;;;1.14;100.00;102025.56;5158947;28;20031;-71
2022/12/03 10:45:18;;;;;;;29.60;19.40;;;;;;;1.24;100.00;102021.22;5162372;28;20031;-70
2022/12/03 10:48:10;;;;;;;32.93;20.43;;;;;;;1.25;100.00;102022.97;5153582;28;20051;-70
2022/12/03 10:51:13;;;;;;;35.27;21.00;;;;;;;1.32;100.00;102014.34;5155483;28;20474;-69
2022/12/03 10:53:44;;;;;;;36.97;22.17;;;;;;;1.24;100.00;102005.75;5158039;28;20039;-70
2022/12/03 10:56:24;;;;;;;30.50;20.17;;;;;;;1.44;100.00;101999.69;5154132;28;20046;-68
2022/12/03 10:58:56;;;;;;;32.30;20.07;;;;;;;1.44;100.00;101991.94;5159551;28;20034;-67
2022/12/03 11:01:27;;;;;;;34.10;19.97;;;;;;;1.46;100.00;101990.22;5168225;28;20031;-69
2022/12/03 11:04:02;;;;;;;33.63;19.67;;;;;;;1.64;100.00;101994.44;5167809;28;20030;-69
2022/12/03 11:06:34;;;;;;;34.53;20.47;;;;;;;1.45;100.00;101976.44;5164360;28;20038;-68
2022/12/03 11:09:17;;;;;;;30.93;19.97;;;;;;;1.59;100.00;101996.19;5163264;28;20050;-68
2022/12/03 11:11:49;;;;;;;29.23;18.77;;;;;;;1.65;100.00;101995.31;5166615;28;20107;-69
2022/12/03 11:14:49;;;;;;;29.90;19.40;;;;;;;1.66;100.00;101989.28;5167950;28;20027;-68
2022/12/03 11:17:45;;;;;;;31.50;18.53;;;;;;;1.73;100.00;101990.97;5164898;28;20023;-68
2022/12/03 11:20:19;;;;;;;31.13;20.40;;;;;;;1.63;100.00;101990.16;5174755;28;20657;-68
2022/12/03 11:22:55;;;;;;;34.00;22.02;;;;;;;1.61;100.00;101983.28;5175240;28;20027;-68
2022/12/03 11:25:26;;;;;;;34.03;20.37;;;;;;;1.63;100.00;101982.41;5172411;28;20530;-70
2022/12/03 11:28:12;;;;;;;32.23;21.40;;;;;;;1.69;100.00;101982.38;5172494;28;20062;-68
2022/12/03 11:30:50;;;;;;;31.60;20.87;;;;;;;1.58;100.00;101979.00;5167208;28;20039;-67
2022/12/03 11:33:26;;;;;;;35.40;21.27;;;;;;;1.45;100.00;101971.28;5160213;28;20026;-68
2022/12/03 11:36:04;;;;;;;35.33;23.63;;;;;;;1.42;100.00;101973.00;5162750;28;20936;-67
2022/12/03 11:38:46;;;;;;;35.20;21.40;;;;;;;1.57;100.00;101974.72;5163716;28;20481;-67
2022/12/03 11:41:33;;;;;;;35.33;22.53;;;;;;;1.59;100.00;101965.19;5162577;28;20042;-68
2022/12/03 11:44:25;;;;;;;32.77;20.57;;;;;;;1.63;100.00;101966.91;5164164;28;20027;-67
2022/12/03 11:46:58;;;;;;;29.10;19.53;;;;;;;1.51;100.00;101951.47;5165727;28;20516;-68
2022/12/03 11:49:33;;;;;;;29.80;20.43;;;;;;;1.59;100.00;101951.44;5166392;28;20057;-66
2022/12/03 11:52:27;;;;;;;29.10;18.30;;;;;;;1.62;100.00;101949.72;5164335;28;20043;-66
2022/12/03 11:55:03;;;;;;;30.87;19.30;;;;;;;1.62;100.00;101954.03;5164722;28;20126;-67
2022/12/03 11:57:36;;;;;;;29.90;19.63;;;;;;;1.58;100.00;101948.00;5165058;28;20136;-69